ORD weather

Chicago O'Hare International Airport
Chicago, Illinois, United States

Public forecast

Using degrees Fahrenheit for public forecast. Weather courtesy of forecast.io.

METAR (pilot weather report)

Retrieved 2017/05/30 09:51 UTC (53 minutes ago):

KORD 300951Z 26005KT 10SM CLR 12/08 A2992 RMK AO2 SLP128 T01220078

TAF (pilot weather forecast)

Retrieved 2017/05/30 06:48 UTC (4 hours ago):

TAF KORD 300545Z 3006/3112 26006KT P6SM SCT100 FM301500 26015G23KT P6SM BKN060 PROB30 3020/3024 6SM -SHRA FM310100 26008KT P6SM SCT100